Amo, Colorado
Current Conditions -  °F | °C
As of 3:13 PM on Thursday 23 Oct 2014 (Local Time) from KFLY Reporting Station
Clear Clear  
Wind Chill: 70°   Ceiling: Unl
Heat Index: 70°   Visibility: 10mi
Dew Point: 25°   Wind: 7mph
Humidity: 19%   Direction: 200°SSW
Pressure: 30.22"   Gusts: NA
Location:  39.0051°N, 104.503°W
Report Text: KFLY 232113Z AUTO 20006KT 10SM CLR 21/M04 A3022 RMK AO2 T02111037
Loading
Personal Weather Stations






























Interactive Weather Map New forecast layout! Learn more

10-Day Weather Forecast

Advertisements
Track Severe Weather on mobile